LTBA/IST METAR and TAF weather

Enter ICAO airport designator
Station Type Date Time Source
LTBA METAR 2021/09/20 04:20 UTC NOAA

LTBA 200420Z VRB02KT CAVOK 20/18 Q1013 NOSIG


Station Type Date Time Source
LTBA Decoded METAR 2021/09/20 04:20 UTC NOAA

Istanbul / Ataturk, Turkey (LTBA) 40-58N 028-49E 37M
Sep 20, 2021 - 12:20 AM EDT / 2021.09.20 0420 UTC
Wind: Variable at 2 MPH (2 KT):0
Visibility: greater than 7 mile(s):0
Temperature: 68 F (20 C)
Dew Point: 64 F (18 C)
Relative Humidity: 88%
Pressure (altimeter): 29.91 in. Hg (1013 hPa)
ob: LTBA 200420Z VRB02KT CAVOK 20/18 Q1013 NOSIG
cycle: 4

Station Type Date Time Source
LTBA TAF 2021/09/19 18:15 UTC NOAA

TAF COR TAF COR LTBA 191640Z 1918/2024 VRB02KT 9999 SCT030 SCT090
TEMPO 1918/1921 -SHRA BKN025
BECMG 1921/1924 CAVOK

Example: see airport list